Time;durP1;ratioP1;P1;durP2;ratioP2;P2;SDS_P1;SDS_P2;PMS_P1;PMS_P2;Temp;Humidity;BMP_temperature;BMP_pressure;BME280_temperature;BME280_humidity;BME280_pressure;Samples;Min_cycle;Max_cycle;Signal;HPM_P1;HPM_P2
2023/09/10 00:01:00;;;;;;;16.73;10.25;;;15.40;89.90;;;;;;4995416;28;20109;-71
2023/09/10 00:03:27;;;;;;;16.42;9.82;;;15.40;89.70;;;;;;5003419;28;20562;-72
2023/09/10 00:05:54;;;;;;;13.27;9.38;;;15.40;89.50;;;;;;4996943;28;20109;-72
2023/09/10 00:08:21;;;;;;;16.80;10.65;;;15.30;89.80;;;;;;4987419;28;20057;-71
2023/09/10 00:10:48;;;;;;;22.85;10.18;;;15.30;90.10;;;;;;4997175;28;20054;-71
2023/09/10 00:13:15;;;;;;;15.88;9.57;;;15.30;89.80;;;;;;4994070;28;20097;-72
2023/09/10 00:15:42;;;;;;;20.80;9.35;;;15.30;90.00;;;;;;5001653;28;20121;-71
2023/09/10 00:18:09;;;;;;;15.93;9.30;;;15.20;90.40;;;;;;4988432;28;20064;-72
2023/09/10 00:20:36;;;;;;;15.20;9.23;;;15.20;90.10;;;;;;4999157;28;20092;-72
2023/09/10 00:23:04;;;;;;;18.67;9.20;;;15.20;90.30;;;;;;5009178;28;20053;-72
2023/09/10 00:25:31;;;;;;;20.45;9.65;;;15.10;90.50;;;;;;4980179;28;20058;-71
2023/09/10 00:27:58;;;;;;;16.95;9.38;;;15.10;90.20;;;;;;4992555;28;20057;-71
2023/09/10 00:30:28;;;;;;;18.05;9.73;;;15.10;90.30;;;;;;5003231;28;20465;-71
2023/09/10 00:32:55;;;;;;;17.67;10.18;;;15.00;90.20;;;;;;5000428;28;20073;-72
2023/09/10 00:35:22;;;;;;;16.02;9.80;;;15.00;90.70;;;;;;4989702;28;20053;-71
2023/09/10 00:37:49;;;;;;;14.90;9.05;;;15.00;90.20;;;;;;4991813;28;20054;-71
2023/09/10 00:40:16;;;;;;;16.23;9.38;;;15.00;90.70;;;;;;4978221;28;20410;-71
2023/09/10 00:42:43;;;;;;;17.15;9.43;;;14.90;90.60;;;;;;4991289;28;20046;-71
2023/09/10 00:45:12;;;;;;;16.17;10.15;;;14.90;90.60;;;;;;4986985;28;20054;-71
2023/09/10 00:47:44;;;;;;;13.98;9.70;;;14.90;90.80;;;;;;4992008;28;20068;-71
2023/09/10 00:50:13;;;;;;;17.55;10.68;;;14.90;91.30;;;;;;5003655;28;20108;-71
2023/09/10 00:52:43;;;;;;;15.75;9.55;;;14.90;91.50;;;;;;4974243;28;20057;-71
2023/09/10 00:55:11;;;;;;;15.07;9.70;;;14.90;91.60;;;;;;5003258;28;20050;-71
2023/09/10 00:57:38;;;;;;;17.50;9.57;;;14.90;91.40;;;;;;4998187;28;20153;-72
2023/09/10 01:00:09;;;;;;;13.80;8.57;;;14.90;91.50;;;;;;4984494;28;20078;-72
2023/09/10 01:02:43;;;;;;;16.33;10.73;;;14.80;91.70;;;;;;4996670;28;20096;-71
2023/09/10 01:05:11;;;;;;;19.48;8.93;;;14.80;92.20;;;;;;4983977;28;20053;-72
2023/09/10 01:07:39;;;;;;;18.67;10.35;;;14.80;91.90;;;;;;4996711;28;20056;-71
2023/09/10 01:10:07;;;;;;;14.38;9.27;;;14.70;92.20;;;;;;4987099;28;20496;-71
2023/09/10 01:12:46;;;;;;;17.98;9.48;;;14.60;92.40;;;;;;4979349;28;20057;-71
2023/09/10 01:15:28;;;;;;;20.23;8.90;;;14.60;92.20;;;;;;4993356;23;20912;-72
2023/09/10 01:18:03;;;;;;;17.75;9.90;;;14.50;92.50;;;;;;4984162;28;20621;-71
2023/09/10 01:20:49;;;;;;;18.85;9.85;;;14.50;92.90;;;;;;4984216;28;20076;-71
2023/09/10 01:23:46;;;;;;;18.35;9.75;;;14.50;92.80;;;;;;4985031;28;20050;-71
2023/09/10 01:26:13;;;;;;;21.15;9.65;;;14.50;93.20;;;;;;4966787;28;20890;-71
2023/09/10 01:28:40;;;;;;;19.80;10.65;;;14.50;92.90;;;;;;4977271;28;20221;-71
2023/09/10 01:31:07;;;;;;;15.95;9.43;;;14.40;92.50;;;;;;4968824;28;20057;-71
2023/09/10 01:33:39;;;;;;;20.02;9.95;;;14.40;92.60;;;;;;4978626;28;20049;-71
2023/09/10 01:36:14;;;;;;;15.48;9.18;;;14.40;92.30;;;;;;4965532;28;20549;-71
2023/09/10 01:38:50;;;;;;;14.18;9.68;;;14.40;92.20;;;;;;4964551;28;20047;-71
2023/09/10 01:41:17;;;;;;;;;;;14.40;92.70;;;;;;4985232;28;20444;-71
2023/09/10 01:43:45;;;;;;;18.77;10.73;;;14.30;92.40;;;;;;4984820;28;19976;-71
2023/09/10 01:46:13;;;;;;;20.20;9.05;;;14.30;92.40;;;;;;4978038;28;20058;-77
2023/09/10 01:48:40;;;;;;;15.55;9.50;;;14.30;93.00;;;;;;4981132;28;20050;-76
2023/09/10 01:51:08;;;;;;;12.90;9.10;;;14.30;92.90;;;;;;4982275;28;20503;-77
2023/09/10 01:53:34;;;;;;;13.38;9.13;;;14.30;92.80;;;;;;4952212;28;20240;-77
2023/09/10 01:56:02;;;;;;;15.55;8.73;;;14.30;93.00;;;;;;4975555;28;20848;-77
2023/09/10 01:58:29;;;;;;;17.85;9.63;;;14.30;92.80;;;;;;4981193;28;20051;-77
2023/09/10 02:00:56;;;;;;;14.23;9.65;;;14.30;92.90;;;;;;4963144;28;20097;-77
2023/09/10 02:03:22;;;;;;;15.88;9.35;;;14.20;92.50;;;;;;4984368;28;20085;-77
2023/09/10 02:05:49;;;;;;;13.52;8.55;;;14.10;92.60;;;;;;4977138;28;20046;-76
2023/09/10 02:08:16;;;;;;;12.05;8.75;;;14.10;92.50;;;;;;4975434;28;20142;-76
2023/09/10 02:10:43;;;;;;;15.40;9.48;;;14.10;92.90;;;;;;4967534;28;20046;-77
2023/09/10 02:13:10;;;;;;;15.48;8.98;;;14.10;92.90;;;;;;4964743;28;20128;-77
2023/09/10 02:15:39;;;;;;;17.63;8.60;;;14.10;93.20;;;;;;4981476;28;20570;-77
2023/09/10 02:18:06;;;;;;;13.20;8.65;;;14.00;92.70;;;;;;4984565;28;20054;-77
2023/09/10 02:20:36;;;;;;;15.98;9.13;;;14.00;93.30;;;;;;4985546;28;20058;-77
2023/09/10 02:23:04;;;;;;;16.83;8.98;;;14.00;93.60;;;;;;4989327;28;20053;-77
2023/09/10 02:25:32;;;;;;;14.40;8.82;;;14.00;93.30;;;;;;4953519;28;20054;-77
2023/09/10 02:28:01;;;;;;;15.88;8.65;;;13.90;93.80;;;;;;4969133;28;20057;-76
2023/09/10 02:30:28;;;;;;;16.95;10.07;;;13.90;93.70;;;;;;4980302;28;20054;-77
2023/09/10 02:32:55;;;;;;;19.98;9.45;;;13.90;93.60;;;;;;4981965;28;20545;-77
2023/09/10 02:35:23;;;;;;;15.32;10.00;;;13.80;93.90;;;;;;4968420;28;20153;-77
2023/09/10 02:37:50;;;;;;;14.50;9.68;;;13.90;94.50;;;;;;4972454;28;20043;-77
2023/09/10 02:40:17;;;;;;;20.27;10.30;;;13.80;94.50;;;;;;4981136;28;20101;-77
2023/09/10 02:42:43;;;;;;;16.58;10.52;;;13.80;94.70;;;;;;4981837;28;20050;-77
2023/09/10 02:45:11;;;;;;;14.02;9.30;;;13.80;94.90;;;;;;4985999;28;20094;-77
2023/09/10 02:47:38;;;;;;;16.23;9.88;;;13.80;95.20;;;;;;4976692;28;20161;-77
2023/09/10 02:50:06;;;;;;;14.27;9.95;;;13.80;95.20;;;;;;4981415;28;20058;-77
2023/09/10 02:52:33;;;;;;;14.73;9.90;;;13.80;94.90;;;;;;4987888;23;20053;-71
2023/09/10 02:55:00;;;;;;;14.85;10.48;;;13.70;95.20;;;;;;4964993;28;20050;-71
2023/09/10 02:57:27;;;;;;;17.08;10.68;;;13.70;95.00;;;;;;4970144;28;20074;-71
2023/09/10 02:59:53;;;;;;;18.80;10.45;;;13.70;95.30;;;;;;4966265;28;20139;-71
2023/09/10 03:02:22;;;;;;;18.10;10.15;;;13.70;95.40;;;;;;4982420;28;20492;-71
2023/09/10 03:04:49;;;;;;;18.88;9.70;;;13.60;94.70;;;;;;4977299;28;20487;-71
2023/09/10 03:07:16;;;;;;;13.73;9.45;;;13.60;94.80;;;;;;4983549;28;20050;-71
2023/09/10 03:09:43;;;;;;;17.60;9.60;;;13.60;94.50;;;;;;4965831;28;20053;-71
2023/09/10 03:16:05;;;;;;;16.67;9.63;;;13.60;94.30;;;;;;4955186;28;20560;-71
2023/09/10 03:18:32;;;;;;;15.00;10.45;;;13.60;94.60;;;;;;4956690;28;20494;-72
2023/09/10 03:21:03;;;;;;;14.90;8.75;;;13.60;94.60;;;;;;4945361;28;20057;-71
2023/09/10 03:23:30;;;;;;;14.13;9.82;;;13.60;94.30;;;;;;4945601;28;20081;-71
2023/09/10 03:25:57;;;;;;;17.25;10.25;;;13.60;94.50;;;;;;4966246;28;20047;-71
2023/09/10 03:28:24;;;;;;;16.50;10.68;;;13.60;94.40;;;;;;4965044;28;20050;-72
2023/09/10 03:30:56;;;;;;;16.02;10.23;;;13.50;94.30;;;;;;4965888;28;20078;-72
2023/09/10 03:33:23;;;;;;;14.32;8.77;;;13.50;94.40;;;;;;4947179;28;20065;-71
2023/09/10 03:35:50;;;;;;;17.60;10.38;;;13.50;94.80;;;;;;4966169;28;20054;-71
2023/09/10 03:38:17;;;;;;;16.38;9.35;;;13.50;95.40;;;;;;4962588;28;20118;-72
2023/09/10 03:40:44;;;;;;;16.23;10.07;;;13.50;95.30;;;;;;4948725;28;20070;-72
2023/09/10 03:43:11;;;;;;;15.43;9.65;;;13.50;95.00;;;;;;4966391;28;20739;-72
2023/09/10 03:45:37;;;;;;;20.75;10.32;;;13.40;94.60;;;;;;4966034;28;20142;-72
2023/09/10 03:48:05;;;;;;;17.52;9.65;;;13.50;95.00;;;;;;4948484;28;20058;-72
2023/09/10 03:50:31;;;;;;;13.52;8.98;;;13.40;94.70;;;;;;4965438;28;20061;-72
2023/09/10 03:52:58;;;;;;;16.88;9.30;;;13.40;94.40;;;;;;4962810;28;20130;-72
2023/09/10 03:55:25;;;;;;;14.75;9.18;;;13.40;95.10;;;;;;4961284;28;20043;-72
2023/09/10 03:57:52;;;;;;;15.13;9.32;;;13.40;94.90;;;;;;4947037;28;20047;-71
2023/09/10 04:00:19;;;;;;;15.13;9.25;;;13.40;95.10;;;;;;4964528;28;20152;-71
2023/09/10 04:02:46;;;;;;;13.68;9.00;;;13.40;95.20;;;;;;4959327;28;20105;-72
2023/09/10 04:05:14;;;;;;;14.68;9.73;;;13.30;95.20;;;;;;4958987;28;20138;-72
2023/09/10 04:07:41;;;;;;;16.75;8.95;;;13.30;95.30;;;;;;4946273;28;20113;-72
2023/09/10 04:10:08;;;;;;;15.40;9.73;;;13.30;95.60;;;;;;4961223;28;20538;-72
2023/09/10 04:12:36;;;;;;;14.25;9.05;;;13.30;95.40;;;;;;4960839;28;20137;-71
2023/09/10 04:15:04;;;;;;;14.27;8.95;;;13.20;95.40;;;;;;4962785;28;20148;-71
2023/09/10 04:17:31;;;;;;;14.15;8.73;;;13.20;95.80;;;;;;4946287;28;20062;-71
2023/09/10 04:19:58;;;;;;;17.33;9.57;;;13.30;96.00;;;;;;4963564;28;20054;-71
2023/09/10 04:22:26;;;;;;;15.98;9.68;;;13.30;95.80;;;;;;4962780;28;20053;-71
2023/09/10 04:24:53;;;;;;;14.07;9.20;;;13.30;95.70;;;;;;4947084;28;20054;-71
2023/09/10 04:27:20;;;;;;;15.88;9.65;;;13.30;95.30;;;;;;4961612;28;20134;-71
2023/09/10 04:29:47;;;;;;;16.92;9.30;;;13.20;95.60;;;;;;4961940;28;20121;-71
2023/09/10 04:32:14;;;;;;;15.70;9.70;;;13.20;95.30;;;;;;4947449;28;20167;-71
2023/09/10 04:34:41;;;;;;;17.40;10.00;;;13.20;95.20;;;;;;4947500;28;20073;-71
2023/09/10 04:37:07;;;;;;;17.58;9.75;;;13.20;95.40;;;;;;4947790;28;20055;-71
2023/09/10 04:39:34;;;;;;;16.73;9.07;;;13.20;95.30;;;;;;4948183;28;20117;-71
2023/09/10 04:42:02;;;;;;;16.65;9.10;;;13.20;95.30;;;;;;4966056;28;20113;-71
2023/09/10 04:44:29;;;;;;;15.85;8.93;;;13.20;95.10;;;;;;4965127;28;20135;-71
2023/09/10 04:46:56;;;;;;;14.23;9.57;;;13.20;95.50;;;;;;4964177;28;20058;-71
2023/09/10 04:49:23;;;;;;;14.45;9.55;;;13.20;95.40;;;;;;4962348;28;20058;-72
2023/09/10 04:51:50;;;;;;;17.02;10.00;;;13.20;95.50;;;;;;4963386;28;20479;-72
2023/09/10 04:54:17;;;;;;;19.38;9.90;;;13.20;95.30;;;;;;4962361;28;20132;-72
2023/09/10 04:56:45;;;;;;;20.50;11.13;;;13.30;95.80;;;;;;4964594;28;20101;-71
2023/09/10 04:59:13;;;;;;;16.73;9.90;;;13.20;95.70;;;;;;4946923;28;20051;-71
2023/09/10 05:01:40;;;;;;;14.57;9.43;;;13.30;95.60;;;;;;4964218;28;20061;-72
2023/09/10 05:04:07;;;;;;;15.63;10.25;;;13.30;95.70;;;;;;4961525;28;20061;-72
2023/09/10 05:06:34;;;;;;;16.00;9.40;;;13.30;96.30;;;;;;4965209;28;21916;-71
2023/09/10 05:09:02;;;;;;;15.82;9.32;;;13.30;96.00;;;;;;4964697;28;20641;-72
2023/09/10 05:11:29;;;;;;;15.13;9.85;;;13.40;95.90;;;;;;4964886;28;20055;-71
2023/09/10 05:13:55;;;;;;;16.75;10.25;;;13.40;96.00;;;;;;4964073;28;20130;-71
2023/09/10 05:16:22;;;;;;;16.67;10.57;;;13.40;96.30;;;;;;4963471;28;20385;-71
2023/09/10 05:18:49;;;;;;;15.70;9.77;;;13.50;96.10;;;;;;4964774;28;20451;-71
2023/09/10 05:21:16;;;;;;;20.30;10.15;;;13.50;96.10;;;;;;4962667;28;20078;-71
2023/09/10 05:23:43;;;;;;;17.58;10.40;;;13.50;96.30;;;;;;4944449;28;20161;-71
2023/09/10 05:26:10;;;;;;;14.80;9.52;;;13.60;96.20;;;;;;4963955;28;20086;-71
2023/09/10 05:28:37;;;;;;;18.58;9.60;;;13.60;95.90;;;;;;4962624;28;20108;-71
2023/09/10 05:31:05;;;;;;;16.10;9.65;;;13.60;96.00;;;;;;4967445;28;21571;-72
2023/09/10 05:33:33;;;;;;;15.50;9.43;;;13.70;95.90;;;;;;4946709;28;20743;-71
2023/09/10 05:36:00;;;;;;;14.98;10.10;;;13.70;95.40;;;;;;4962910;28;20055;-72
2023/09/10 05:38:27;;;;;;;20.08;9.50;;;13.70;95.40;;;;;;4962423;28;20050;-72
2023/09/10 05:40:59;;;;;;;18.42;9.68;;;13.80;95.30;;;;;;4964311;28;20106;-71
2023/09/10 05:43:29;;;;;;;15.80;9.65;;;13.80;95.60;;;;;;4956056;28;20059;-72
2023/09/10 05:45:57;;;;;;;13.73;9.70;;;13.90;95.60;;;;;;4962798;28;20082;-72
2023/09/10 05:48:24;;;;;;;20.13;9.10;;;14.00;95.90;;;;;;4945576;28;20054;-71
2023/09/10 05:50:56;;;;;;;17.25;9.85;;;14.00;95.30;;;;;;4945622;28;20058;-72
2023/09/10 05:53:23;;;;;;;17.45;9.85;;;14.10;95.60;;;;;;4958368;28;20051;-72
2023/09/10 05:55:50;;;;;;;16.02;9.82;;;14.20;95.70;;;;;;4947537;28;20059;-72
2023/09/10 05:58:18;;;;;;;19.95;9.60;;;14.20;95.10;;;;;;4962051;28;20093;-72
2023/09/10 06:00:46;;;;;;;17.25;11.52;;;14.30;95.10;;;;;;4963530;28;20046;-72
2023/09/10 06:03:13;;;;;;;19.55;10.90;;;14.40;95.20;;;;;;4963980;28;20055;-71
2023/09/10 06:05:40;;;;;;;16.10;10.40;;;14.50;95.50;;;;;;4961735;28;20129;-71
2023/09/10 06:08:07;;;;;;;16.00;10.55;;;14.60;95.00;;;;;;4945843;28;20138;-71
2023/09/10 06:10:34;;;;;;;18.83;11.25;;;14.70;95.60;;;;;;4963923;28;20054;-72
2023/09/10 06:13:01;;;;;;;15.13;10.10;;;14.80;95.30;;;;;;4962810;28;20194;-71
2023/09/10 06:15:28;;;;;;;20.40;10.82;;;14.90;95.50;;;;;;4945903;28;20083;-72
2023/09/10 06:17:55;;;;;;;17.10;11.18;;;15.00;95.70;;;;;;4963282;28;20042;-72
2023/09/10 06:20:22;;;;;;;17.73;12.52;;;15.20;96.40;;;;;;4962304;28;20636;-72
2023/09/10 06:22:49;;;;;;;17.25;11.10;;;15.50;96.10;;;;;;4962891;28;20558;-72
2023/09/10 06:25:16;;;;;;;20.95;12.18;;;15.70;95.00;;;;;;4963005;28;20119;-72
2023/09/10 06:27:43;;;;;;;22.42;12.07;;;16.00;94.40;;;;;;4940874;28;20801;-72
2023/09/10 06:30:11;;;;;;;18.13;11.05;;;16.30;93.10;;;;;;4961744;28;20543;-72
2023/09/10 06:32:37;;;;;;;15.18;10.57;;;16.60;92.40;;;;;;4962499;28;20114;-72
2023/09/10 06:35:05;;;;;;;17.48;10.70;;;16.90;92.50;;;;;;4944022;28;20101;-72
2023/09/10 06:37:33;;;;;;;18.88;10.48;;;17.20;90.90;;;;;;4964563;28;20129;-72
2023/09/10 06:40:00;;;;;;;15.73;10.05;;;17.50;89.80;;;;;;4961875;28;20109;-72
2023/09/10 06:42:26;;;;;;;22.70;10.85;;;17.80;88.90;;;;;;4962244;28;20062;-72
2023/09/10 06:44:53;;;;;;;15.68;10.95;;;18.10;87.60;;;;;;4961038;28;20082;-72
2023/09/10 06:47:20;;;;;;;19.65;10.10;;;18.40;87.20;;;;;;4963285;28;20058;-72
2023/09/10 06:49:47;;;;;;;16.92;10.75;;;18.70;86.30;;;;;;4957062;28;20149;-73
2023/09/10 06:52:14;;;;;;;16.02;10.18;;;19.10;84.60;;;;;;4959620;28;20070;-72
2023/09/10 06:54:41;;;;;;;18.48;10.82;;;19.60;82.80;;;;;;4961286;28;20050;-72
2023/09/10 06:57:08;;;;;;;16.42;9.52;;;19.90;83.00;;;;;;4960081;28;20153;-72
2023/09/10 06:59:35;;;;;;;18.00;9.90;;;20.20;81.80;;;;;;4950037;28;20403;-72
2023/09/10 07:02:02;;;;;;;14.40;9.70;;;20.40;80.20;;;;;;4953940;28;20070;-72
2023/09/10 07:04:29;;;;;;;20.42;11.07;;;20.50;78.90;;;;;;4952614;28;20054;-72
2023/09/10 07:06:56;;;;;;;17.73;10.65;;;20.80;78.80;;;;;;4963244;28;20408;-72
2023/09/10 07:09:23;;;;;;;15.70;10.50;;;21.10;77.20;;;;;;4967340;28;20110;-72
2023/09/10 07:11:52;;;;;;;20.02;10.55;;;21.20;77.50;;;;;;4966519;28;20058;-73
2023/09/10 07:14:20;;;;;;;15.68;10.38;;;21.60;76.20;;;;;;4965677;28;20051;-71
2023/09/10 07:16:48;;;;;;;17.20;10.65;;;21.60;74.40;;;;;;4952716;28;20053;-71
2023/09/10 07:19:15;;;;;;;16.95;10.27;;;21.90;75.30;;;;;;4967085;28;20047;-72
2023/09/10 07:21:43;;;;;;;17.10;10.50;;;21.90;74.40;;;;;;4967222;28;20349;-73
2023/09/10 07:24:10;;;;;;;17.25;10.18;;;22.20;73.70;;;;;;4965360;28;20055;-72
2023/09/10 07:26:37;;;;;;;15.88;10.40;;;22.40;74.00;;;;;;4972480;28;20547;-72
2023/09/10 07:29:05;;;;;;;19.63;10.43;;;22.70;73.20;;;;;;4952974;28;20407;-72
2023/09/10 07:31:34;;;;;;;15.00;10.30;;;22.80;73.60;;;;;;4968244;28;20535;-73
2023/09/10 07:34:02;;;;;;;16.77;10.32;;;22.90;72.30;;;;;;4967007;28;20047;-72
2023/09/10 07:36:29;;;;;;;14.77;9.43;;;23.20;72.20;;;;;;4964718;28;20043;-75
2023/09/10 07:38:56;;;;;;;12.70;9.48;;;23.70;70.60;;;;;;4968615;28;20054;-74
2023/09/10 07:41:23;;;;;;;14.38;8.90;;;24.30;69.40;;;;;;4969425;28;20133;-75
2023/09/10 07:43:50;;;;;;;11.07;8.70;;;24.60;68.30;;;;;;4967913;28;20090;-74
2023/09/10 07:46:17;;;;;;;11.48;8.82;;;25.20;68.00;;;;;;4970125;28;20141;-75
2023/09/10 07:48:44;;;;;;;14.45;9.77;;;25.80;65.60;;;;;;4967091;28;20105;-75
2023/09/10 07:51:11;;;;;;;18.05;10.18;;;26.30;64.50;;;;;;4968198;28;20082;-75
2023/09/10 07:53:38;;;;;;;14.07;9.35;;;26.80;62.80;;;;;;4969371;28;20559;-74
2023/09/10 07:56:05;;;;;;;17.10;10.00;;;27.00;61.80;;;;;;4952625;28;20192;-71
2023/09/10 07:58:32;;;;;;;14.77;10.35;;;26.80;61.40;;;;;;4950696;28;20153;-71
2023/09/10 08:00:59;;;;;;;16.60;10.00;;;26.60;62.40;;;;;;4958023;28;20119;-72
2023/09/10 08:03:25;;;;;;;12.40;10.45;;;26.90;62.80;;;;;;4969814;28;20087;-76
2023/09/10 08:05:53;;;;;;;19.15;10.10;;;27.10;61.40;;;;;;4966488;28;20050;-74
2023/09/10 08:08:19;;;;;;;18.85;10.73;;;27.60;61.00;;;;;;4945668;28;20103;-74
2023/09/10 08:10:47;;;;;;;17.90;10.05;;;27.20;61.70;;;;;;4944890;28;20055;-74
2023/09/10 08:13:14;;;;;;;14.15;9.73;;;27.50;60.70;;;;;;4965821;28;20051;-74
2023/09/10 08:15:41;;;;;;;14.75;10.50;;;28.00;60.70;;;;;;4964697;28;20051;-74
2023/09/10 08:18:11;;;;;;;13.00;9.77;;;28.00;59.30;;;;;;4948198;28;20423;-74
2023/09/10 08:20:39;;;;;;;17.35;10.25;;;27.90;59.80;;;;;;4966354;28;20176;-74
2023/09/10 08:23:07;;;;;;;18.80;9.70;;;28.00;59.40;;;;;;4965708;28;20082;-75
2023/09/10 08:25:35;;;;;;;16.73;9.90;;;28.30;60.10;;;;;;4966525;28;20050;-75
2023/09/10 08:28:02;;;;;;;14.18;9.32;;;28.40;59.10;;;;;;4951727;28;20074;-75
2023/09/10 08:30:30;;;;;;;12.30;8.80;;;28.60;59.20;;;;;;4965175;28;20055;-74
2023/09/10 08:32:58;;;;;;;12.10;9.18;;;28.80;59.80;;;;;;4947768;28;20799;-73
2023/09/10 08:35:43;;;;;;;23.02;9.90;;;28.30;58.10;;;;;;4965696;28;20153;-73
2023/09/10 08:38:10;;;;;;;12.73;8.52;;;28.70;57.80;;;;;;4964948;28;20118;-72
2023/09/10 08:40:45;;;;;;;14.68;8.52;;;28.20;60.60;;;;;;4952111;28;20138;-72
2023/09/10 08:43:14;;;;;;;;;;;28.80;58.60;;;;;;4944200;28;20051;-72
2023/09/10 08:45:42;;;;;;;16.30;9.23;;;28.90;57.30;;;;;;4963987;28;19970;-73
2023/09/10 08:48:10;;;;;;;19.70;10.68;;;29.40;57.50;;;;;;4947836;28;20059;-72
2023/09/10 08:50:37;;;;;;;12.65;8.88;;;29.00;56.60;;;;;;4964135;28;20163;-72
2023/09/10 08:53:06;;;;;;;10.75;7.90;;;29.30;57.10;;;;;;4963101;28;21521;-73
2023/09/10 08:55:35;;;;;;;11.98;8.05;;;29.00;57.70;;;;;;4964407;28;20051;-72
2023/09/10 08:58:03;;;;;;;10.20;7.85;;;29.60;57.80;;;;;;4963590;28;20055;-75
2023/09/10 09:00:31;;;;;;;11.85;8.90;;;29.30;57.50;;;;;;4946673;28;20058;-75
2023/09/10 09:02:58;;;;;;;16.58;9.32;;;29.10;57.90;;;;;;4963240;28;20046;-75
2023/09/10 09:05:29;;;;;;;13.77;9.18;;;29.30;56.70;;;;;;4965266;28;20154;-75
2023/09/10 09:08:05;;;;;;;21.58;9.38;;;29.40;57.40;;;;;;4965061;28;20055;-75
2023/09/10 09:10:33;;;;;;;18.05;9.27;;;29.50;56.50;;;;;;4950715;28;20051;-74
2023/09/10 09:13:12;;;;;;;18.42;9.02;;;29.70;57.30;;;;;;4950115;28;20107;-74
2023/09/10 09:15:40;;;;;;;16.70;8.50;;;30.60;54.30;;;;;;4947094;28;20047;-74
2023/09/10 09:18:10;;;;;;;13.60;8.82;;;30.80;54.90;;;;;;4960717;28;20149;-74
2023/09/10 09:20:39;;;;;;;13.48;8.40;;;31.40;53.50;;;;;;4947373;28;20058;-74
2023/09/10 09:23:17;;;;;;;13.10;8.48;;;31.10;54.40;;;;;;4965039;28;20051;-71
2023/09/10 09:25:44;;;;;;;23.58;9.23;;;31.10;55.30;;;;;;4947005;28;20073;-72
2023/09/10 09:28:12;;;;;;;11.93;7.63;;;31.50;54.00;;;;;;4961463;28;20046;-71
2023/09/10 09:30:39;;;;;;;15.48;7.90;;;31.70;53.90;;;;;;4939948;28;20055;-73
2023/09/10 09:33:06;;;;;;;9.20;6.97;;;32.10;52.10;;;;;;4958057;28;20061;-73
2023/09/10 09:35:33;;;;;;;11.63;7.28;;;32.20;51.90;;;;;;4938826;28;20121;-72
2023/09/10 09:38:16;;;;;;;12.13;7.60;;;32.00;51.70;;;;;;4956209;28;20051;-75
2023/09/10 09:40:45;;;;;;;10.98;7.47;;;31.80;51.40;;;;;;4943653;28;20051;-72
2023/09/10 09:43:12;;;;;;;14.60;7.55;;;32.30;51.50;;;;;;4965098;28;20072;-73
2023/09/10 09:45:47;;;;;;;11.32;8.20;;;32.40;51.70;;;;;;4959181;28;20054;-74
2023/09/10 09:48:14;;;;;;;10.48;6.50;;;32.50;52.90;;;;;;4936020;28;20709;-74
2023/09/10 09:50:41;;;;;;;11.25;7.43;;;33.70;50.00;;;;;;4938092;28;20083;-73
2023/09/10 09:53:08;;;;;;;10.05;8.50;;;34.20;50.70;;;;;;4958160;28;20069;-72
2023/09/10 09:55:35;;;;;;;11.13;8.18;;;34.40;48.70;;;;;;4959049;28;20563;-72
2023/09/10 09:58:04;;;;;;;9.27;7.45;;;34.90;48.50;;;;;;4964663;28;20050;-72
2023/09/10 10:00:34;;;;;;;8.95;7.60;;;35.40;48.20;;;;;;4958785;28;20172;-72
2023/09/10 10:03:05;;;;;;;12.30;9.02;;;35.20;48.50;;;;;;4948730;28;20054;-70
2023/09/10 10:05:33;;;;;;;14.55;8.80;;;35.10;47.50;;;;;;4945680;28;20509;-72
2023/09/10 10:08:00;;;;;;;11.13;8.65;;;34.80;49.20;;;;;;4962631;28;20046;-70
2023/09/10 10:10:27;;;;;;;31.98;10.23;;;35.00;48.40;;;;;;4964393;28;20693;-70
2023/09/10 10:12:55;;;;;;;21.23;8.95;;;35.90;47.60;;;;;;4964942;28;20074;-71
2023/09/10 10:15:23;;;;;;;14.57;9.02;;;36.30;47.50;;;;;;4961465;28;20046;-71
2023/09/10 10:17:52;;;;;;;12.73;8.80;;;35.30;48.20;;;;;;4962283;28;20046;-72
2023/09/10 10:20:20;;;;;;;16.52;9.20;;;35.40;49.20;;;;;;4958829;28;20042;-72
2023/09/10 10:22:48;;;;;;;12.70;9.30;;;35.40;48.60;;;;;;4957629;28;20055;-71
2023/09/10 10:25:15;;;;;;;17.23;9.80;;;35.50;48.50;;;;;;4965366;28;20054;-73
2023/09/10 10:27:43;;;;;;;17.33;10.77;;;35.20;50.00;;;;;;4964188;28;20050;-71
2023/09/10 10:30:11;;;;;;;17.55;11.32;;;34.80;49.40;;;;;;4947965;28;20096;-71
2023/09/10 10:32:39;;;;;;;14.98;11.57;;;34.40;50.00;;;;;;4964323;28;20085;-71
2023/09/10 10:35:09;;;;;;;16.65;9.40;;;34.90;50.00;;;;;;4964232;28;21006;-71
2023/09/10 10:37:47;;;;;;;15.45;10.00;;;34.20;51.00;;;;;;4965459;28;20050;-71
2023/09/10 10:40:19;;;;;;;15.35;12.25;;;34.10;51.10;;;;;;4955585;28;20046;-71
2023/09/10 10:42:53;;;;;;;14.00;11.40;;;34.70;50.60;;;;;;4964621;28;20709;-71
2023/09/10 10:45:24;;;;;;;13.80;10.60;;;33.90;50.70;;;;;;4960619;28;20061;-73
2023/09/10 10:47:53;;;;;;;15.18;9.88;;;33.80;51.90;;;;;;4963437;28;20042;-75
2023/09/10 10:50:26;;;;;;;15.65;10.60;;;33.70;51.80;;;;;;4964270;28;20055;-73
2023/09/10 10:52:59;;;;;;;19.67;12.53;;;33.80;52.10;;;;;;4961422;28;20121;-73
2023/09/10 10:55:27;;;;;;;17.15;12.60;;;33.10;52.30;;;;;;4961392;28;20046;-73
2023/09/10 10:57:55;;;;;;;13.73;11.93;;;33.30;52.10;;;;;;4960068;28;20471;-73
2023/09/10 11:00:22;;;;;;;20.48;11.65;;;32.50;53.10;;;;;;4958464;28;20574;-73
2023/09/10 11:03:13;;;;;;;19.20;11.52;;;33.00;53.00;;;;;;4963301;28;20148;-71
2023/09/10 11:05:52;;;;;;;17.00;11.25;;;33.90;51.50;;;;;;4961632;28;20148;-72
2023/09/10 11:08:28;;;;;;;15.85;10.77;;;33.50;52.60;;;;;;4963051;28;20055;-73
2023/09/10 11:10:56;;;;;;;18.02;11.30;;;33.60;51.40;;;;;;4960455;28;20101;-74
2023/09/10 11:13:23;;;;;;;15.40;12.23;;;33.50;52.60;;;;;;4970726;28;20054;-74
2023/09/10 11:16:04;;;;;;;17.48;11.48;;;33.50;51.50;;;;;;4959961;28;20051;-74
2023/09/10 11:18:34;;;;;;;17.70;11.20;;;33.80;51.10;;;;;;4949028;28;20047;-74
2023/09/10 11:21:06;;;;;;;16.92;11.88;;;33.70;51.10;;;;;;4962143;28;20643;-74
2023/09/10 11:23:35;;;;;;;16.20;10.80;;;33.00;52.30;;;;;;4947000;28;20042;-73
2023/09/10 11:26:14;;;;;;;14.45;11.80;;;34.30;51.20;;;;;;4963597;28;20058;-74
2023/09/10 11:28:45;;;;;;;14.88;10.30;;;34.30;50.20;;;;;;4961592;28;20058;-74
2023/09/10 11:31:45;;;;;;;17.42;12.82;;;34.40;50.70;;;;;;4963337;28;20082;-74
2023/09/10 11:34:15;;;;;;;15.65;11.88;;;34.50;51.20;;;;;;4946888;28;20082;-74
2023/09/10 11:36:49;;;;;;;19.00;12.98;;;34.30;50.70;;;;;;4963047;28;20047;-74
2023/09/10 11:39:18;;;;;;;19.02;12.13;;;33.40;52.50;;;;;;4968884;28;20059;-74
2023/09/10 11:41:47;;;;;;;27.35;13.88;;;33.90;52.00;;;;;;4958178;28;20058;-74
2023/09/10 11:44:14;;;;;;;22.52;12.88;;;34.00;51.20;;;;;;4949581;28;20202;-74
2023/09/10 11:46:41;;;;;;;15.63;12.77;;;33.80;52.10;;;;;;4963231;28;20513;-74
2023/09/10 11:49:13;;;;;;;16.65;12.40;;;34.30;50.80;;;;;;4952363;28;20054;-74
2023/09/10 11:51:45;;;;;;;23.15;12.10;;;34.20;52.50;;;;;;4950274;28;20051;-74
2023/09/10 11:54:18;;;;;;;21.27;13.10;;;34.30;51.60;;;;;;4946187;28;20099;-74
2023/09/10 11:56:53;;;;;;;24.98;12.90;;;36.10;49.10;;;;;;4954568;28;20047;-74
2023/09/10 11:59:23;;;;;;;20.27;13.18;;;37.00;46.80;;;;;;4949426;28;20054;-74
2023/09/10 12:01:54;;;;;;;19.48;13.77;;;35.50;48.70;;;;;;4960119;28;20141;-74
2023/09/10 12:04:26;;;;;;;26.27;14.25;;;34.00;51.70;;;;;;4961308;28;20051;-74
2023/09/10 12:06:53;;;;;;;20.55;14.48;;;34.60;50.90;;;;;;4959154;28;20051;-74
2023/09/10 12:09:20;;;;;;;17.88;13.07;;;34.30;51.20;;;;;;4966738;28;20074;-74
2023/09/10 12:11:51;;;;;;;21.85;13.68;;;34.10;52.20;;;;;;4947917;28;20096;-74
2023/09/10 12:14:18;;;;;;;15.68;12.60;;;34.20;51.30;;;;;;4965349;28;20149;-74
2023/09/10 12:16:46;;;;;;;20.75;13.30;;;34.80;50.20;;;;;;4964938;28;20050;-71
2023/09/10 12:19:13;;;;;;;21.88;13.82;;;35.00;50.00;;;;;;4965579;28;20081;-74
2023/09/10 12:21:41;;;;;;;23.52;14.23;;;35.30;49.30;;;;;;4965820;28;20078;-72
2023/09/10 12:24:08;;;;;;;27.40;15.50;;;34.40;50.20;;;;;;4959687;28;20121;-73
2023/09/10 12:26:35;;;;;;;21.20;14.02;;;34.00;51.00;;;;;;4947795;28;20046;-76
2023/09/10 12:29:03;;;;;;;18.67;14.75;;;34.30;50.70;;;;;;4963666;28;20078;-74
2023/09/10 12:31:30;;;;;;;17.15;13.68;;;34.10;50.60;;;;;;4964542;28;20085;-76
2023/09/10 12:33:57;;;;;;;18.85;12.77;;;34.40;50.30;;;;;;4949505;28;20519;-76
2023/09/10 12:36:24;;;;;;;19.80;14.45;;;34.90;49.50;;;;;;4947962;28;20507;-77
2023/09/10 12:38:52;;;;;;;24.05;13.50;;;34.30;50.50;;;;;;4953221;28;20109;-75
2023/09/10 12:41:19;;;;;;;19.50;12.80;;;34.90;50.00;;;;;;4962521;28;20054;-77
2023/09/10 12:43:46;;;;;;;17.98;13.30;;;35.00;49.80;;;;;;4948107;28;20061;-77